createdAt,value
2017-12-22T00:01:33.828Z,5.55
2017-12-22T00:04:01.326Z,5.15
2017-12-22T00:06:30.054Z,4.72
2017-12-22T00:08:57.580Z,4.65
2017-12-22T00:11:26.103Z,4.95
2017-12-22T00:13:53.865Z,4.10
2017-12-22T00:16:21.370Z,4.35
2017-12-22T00:18:49.388Z,4.00
2017-12-22T00:21:17.228Z,4.40
2017-12-22T00:23:44.740Z,4.60
2017-12-22T00:26:12.276Z,4.32
2017-12-22T00:28:40.010Z,4.07
2017-12-22T00:31:07.509Z,4.87
2017-12-22T00:33:35.062Z,4.85
2017-12-22T00:36:02.614Z,4.57
2017-12-22T00:38:30.132Z,5.12
2017-12-22T00:40:57.641Z,5.25
2017-12-22T00:43:25.599Z,5.62
2017-12-22T00:46:03.094Z,5.60
2017-12-22T00:48:30.728Z,5.60
2017-12-22T00:50:58.245Z,6.68
2017-12-22T00:53:25.802Z,5.37
2017-12-22T00:55:53.441Z,5.50
2017-12-22T00:58:20.992Z,6.75
2017-12-22T01:00:48.496Z,5.35
2017-12-22T01:03:16.190Z,6.37
2017-12-22T01:05:43.685Z,4.80
2017-12-22T01:08:11.190Z,5.25
2017-12-22T01:10:39.091Z,5.80
2017-12-22T01:13:07.305Z,5.30
2017-12-22T01:15:40.589Z,5.95
2017-12-22T01:18:13.757Z,5.30
2017-12-22T01:20:41.615Z,6.07
2017-12-22T01:23:10.097Z,5.03
2017-12-22T01:25:37.604Z,5.20
2017-12-22T01:28:05.297Z,5.28
2017-12-22T01:30:32.797Z,5.20
2017-12-22T01:33:00.333Z,5.10
2017-12-22T01:35:28.269Z,4.70
2017-12-22T01:37:55.778Z,4.80
2017-12-22T01:40:23.277Z,5.70
2017-12-22T01:42:50.809Z,4.72
2017-12-22T01:45:18.314Z,4.93
2017-12-22T01:47:45.822Z,4.80
2017-12-22T01:50:13.956Z,4.85
2017-12-22T01:52:41.461Z,4.97
2017-12-22T01:55:08.980Z,4.03
2017-12-22T01:57:36.700Z,4.40
2017-12-22T02:00:04.206Z,3.67
2017-12-22T02:02:31.709Z,3.60
2017-12-22T02:04:59.523Z,3.30
2017-12-22T02:07:27.017Z,3.80
2017-12-22T02:09:54.537Z,3.25
2017-12-22T02:12:22.507Z,3.17
2017-12-22T02:14:50.001Z,3.47
2017-12-22T02:17:17.523Z,3.15
2017-12-22T02:19:45.083Z,3.80
2017-12-22T02:22:12.582Z,3.42
2017-12-22T02:24:40.201Z,3.05
2017-12-22T02:27:07.758Z,3.85
2017-12-22T02:29:35.255Z,3.72
2017-12-22T02:32:02.778Z,4.40
2017-12-22T02:34:30.744Z,3.33
2017-12-22T02:36:58.237Z,3.25
2017-12-22T02:39:25.744Z,2.92
2017-12-22T02:41:53.299Z,3.53
2017-12-22T02:44:20.809Z,3.42
2017-12-22T02:46:48.322Z,3.35
2017-12-22T02:49:15.995Z,3.30
2017-12-22T02:51:43.566Z,3.50
2017-12-22T02:54:11.169Z,3.17
2017-12-22T02:56:38.981Z,3.85
2017-12-22T02:59:06.477Z,3.50
2017-12-22T03:01:33.981Z,3.95
2017-12-22T03:04:01.657Z,3.60
2017-12-22T03:06:29.157Z,3.90
2017-12-22T03:08:56.675Z,4.18
2017-12-22T03:11:24.231Z,3.85
2017-12-22T03:13:51.733Z,4.68
2017-12-22T03:16:19.248Z,4.15
2017-12-22T03:18:46.928Z,4.03
2017-12-22T03:21:14.468Z,4.28
2017-12-22T03:23:41.971Z,3.67
2017-12-22T03:26:09.689Z,3.95
2017-12-22T03:28:37.248Z,4.32
2017-12-22T03:31:04.746Z,4.10
2017-12-22T03:33:32.305Z,4.22
2017-12-22T03:35:59.801Z,4.32
2017-12-22T03:38:27.405Z,5.32
2017-12-22T03:40:54.938Z,4.00
2017-12-22T03:43:22.434Z,4.03
2017-12-22T03:45:49.934Z,4.28
2017-12-22T03:48:17.517Z,5.35
2017-12-22T03:50:45.018Z,5.85
2017-12-22T03:53:12.524Z,4.80
2017-12-22T03:55:40.065Z,4.47
2017-12-22T03:58:07.570Z,4.60
2017-12-22T04:00:35.108Z,4.80
2017-12-22T04:03:02.665Z,5.03
2017-12-22T04:05:30.170Z,4.70
2017-12-22T04:07:57.680Z,5.20
2017-12-22T04:10:25.368Z,5.43
2017-12-22T04:12:52.881Z,6.57
2017-12-22T04:15:20.386Z,6.10
2017-12-22T04:17:47.937Z,6.25
2017-12-22T04:20:15.477Z,6.10
2017-12-22T04:22:43.039Z,6.65
2017-12-22T04:25:10.538Z,7.05
2017-12-22T04:27:38.046Z,6.85
2017-12-22T04:30:05.554Z,7.03
2017-12-22T04:32:33.241Z,7.03
2017-12-22T04:35:00.741Z,6.10
2017-12-22T04:37:28.289Z,7.50
2017-12-22T04:39:56.019Z,8.07
2017-12-22T04:42:23.527Z,6.78
2017-12-22T04:44:51.025Z,7.12
2017-12-22T04:47:18.831Z,8.48
2017-12-22T04:49:46.493Z,8.48
2017-12-22T04:52:14.201Z,7.60
2017-12-22T04:54:42.141Z,9.18
2017-12-22T04:57:09.683Z,8.85
2017-12-22T04:59:37.190Z,8.73
2017-12-22T05:02:04.902Z,9.55
2017-12-22T05:04:32.409Z,10.13
2017-12-22T05:06:59.925Z,10.10
2017-12-22T05:09:27.785Z,10.48
2017-12-22T05:11:55.293Z,11.65
2017-12-22T05:14:22.829Z,13.07
2017-12-22T05:16:50.366Z,11.90
2017-12-22T05:19:17.920Z,14.70
2017-12-22T05:21:45.432Z,13.10
2017-12-22T05:24:13.061Z,13.82
2017-12-22T05:26:40.596Z,12.55
2017-12-22T05:29:08.102Z,13.30
2017-12-22T05:31:35.662Z,12.07
2017-12-22T05:34:03.173Z,13.35
2017-12-22T05:36:30.733Z,12.10
2017-12-22T05:38:58.426Z,13.80
2017-12-22T05:41:25.956Z,13.52
2017-12-22T05:43:53.528Z,12.07
2017-12-22T05:46:22.298Z,12.75
2017-12-22T05:48:50.369Z,12.98
2017-12-22T05:51:17.885Z,12.10
2017-12-22T05:53:45.591Z,13.00
2017-12-22T05:56:13.168Z,12.77
2017-12-22T05:58:40.707Z,14.15
2017-12-22T06:01:08.471Z,16.00
2017-12-22T06:03:35.978Z,15.52
2017-12-22T06:06:03.486Z,14.35
2017-12-22T06:08:31.041Z,14.20
2017-12-22T06:10:58.544Z,13.82
2017-12-22T06:13:26.049Z,13.13
2017-12-22T06:15:53.826Z,14.55
2017-12-22T06:18:21.388Z,14.10
2017-12-22T06:20:48.898Z,14.55
2017-12-22T06:23:16.580Z,14.23
2017-12-22T06:25:44.118Z,14.07
2017-12-22T06:28:11.633Z,12.57
2017-12-22T06:30:39.179Z,12.55
2017-12-22T06:33:06.866Z,13.50
2017-12-22T06:35:34.401Z,12.48
2017-12-22T06:38:02.119Z,11.15
2017-12-22T06:40:29.621Z,12.37
2017-12-22T06:42:57.125Z,11.35
2017-12-22T06:45:24.669Z,12.98
2017-12-22T06:47:52.177Z,12.25
2017-12-22T06:50:19.690Z,13.02
2017-12-22T06:52:47.398Z,13.65
2017-12-22T06:55:14.907Z,12.65
2017-12-22T06:57:42.433Z,11.77
2017-12-22T07:00:10.402Z,12.57
2017-12-22T07:02:37.910Z,11.98
2017-12-22T07:05:05.425Z,11.75
2017-12-22T07:07:32.975Z,12.02
2017-12-22T07:10:00.481Z,14.35
2017-12-22T07:12:27.997Z,12.57
2017-12-22T07:14:55.557Z,13.52
2017-12-22T07:17:23.112Z,11.52
2017-12-22T07:19:50.670Z,13.30
2017-12-22T07:22:18.432Z,12.50
2017-12-22T07:24:45.932Z,11.70
2017-12-22T07:27:13.466Z,11.93
2017-12-22T07:29:41.046Z,10.82
2017-12-22T07:32:08.552Z,12.40
2017-12-22T07:34:36.061Z,11.38
2017-12-22T07:37:03.787Z,10.88
2017-12-22T07:39:31.304Z,10.18
2017-12-22T07:41:58.906Z,10.77
2017-12-22T07:44:26.803Z,9.77
2017-12-22T07:46:54.331Z,10.50
2017-12-22T07:49:21.842Z,10.18
2017-12-22T07:51:49.392Z,8.85
2017-12-22T07:54:17.008Z,9.60
2017-12-22T07:56:44.568Z,9.30
2017-12-22T07:59:12.299Z,9.13
2017-12-22T08:01:39.808Z,8.63
2017-12-22T08:04:07.304Z,9.40
2017-12-22T08:06:35.735Z,9.98
2017-12-22T08:09:03.241Z,11.07
2017-12-22T08:11:30.750Z,9.65
2017-12-22T08:13:58.286Z,9.95
2017-12-22T08:16:25.790Z,9.27
2017-12-22T08:18:53.349Z,9.02
2017-12-22T08:21:21.059Z,9.57
2017-12-22T08:23:48.561Z,9.20
2017-12-22T08:26:16.095Z,10.05
2017-12-22T08:28:43.637Z,9.45
2017-12-22T08:31:11.146Z,10.95
2017-12-22T08:33:38.656Z,10.50
2017-12-22T08:36:06.309Z,9.15
2017-12-22T08:38:33.810Z,9.63
2017-12-22T08:41:01.321Z,10.00
2017-12-22T08:43:28.935Z,10.30
2017-12-22T08:45:56.467Z,8.43
2017-12-22T08:48:23.969Z,9.70
2017-12-22T08:50:51.994Z,9.38
2017-12-22T08:53:19.500Z,9.93
2017-12-22T08:55:47.018Z,9.10
2017-12-22T08:58:14.773Z,8.65
2017-12-22T09:00:42.277Z,9.57
2017-12-22T09:03:09.895Z,9.70
2017-12-22T09:05:37.656Z,8.48
2017-12-22T09:08:05.216Z,7.78
2017-12-22T09:10:32.722Z,8.02
2017-12-22T09:13:00.648Z,8.70
2017-12-22T09:15:28.154Z,8.35
2017-12-22T09:17:55.661Z,6.85
2017-12-22T09:20:23.598Z,7.62
2017-12-22T09:22:51.199Z,6.65
2017-12-22T09:25:18.701Z,6.60
2017-12-22T09:27:46.236Z,5.47
2017-12-22T09:30:13.762Z,7.35
2017-12-22T09:32:41.318Z,6.75
2017-12-22T09:35:08.857Z,8.18
2017-12-22T09:37:36.386Z,6.45
2017-12-22T09:40:03.921Z,6.87
2017-12-22T09:42:31.462Z,8.35
2017-12-22T09:44:59.012Z,7.62
2017-12-22T09:47:26.572Z,8.45
2017-12-22T09:49:54.232Z,8.95
2017-12-22T09:52:21.733Z,9.35
2017-12-22T09:54:49.352Z,8.88
2017-12-22T09:57:17.088Z,8.90
2017-12-22T09:59:44.622Z,8.55
2017-12-22T10:02:12.128Z,7.65
2017-12-22T10:04:39.899Z,7.35
2017-12-22T10:07:07.476Z,8.77
2017-12-22T10:09:34.993Z,7.95
2017-12-22T10:12:02.776Z,7.90
2017-12-22T10:14:30.363Z,8.50
2017-12-22T10:16:57.868Z,8.35
2017-12-22T10:19:25.417Z,8.65
2017-12-22T10:21:52.930Z,8.98
2017-12-22T10:24:20.439Z,7.65
2017-12-22T10:26:48.232Z,8.30
2017-12-22T10:29:15.741Z,9.18
2017-12-22T10:31:43.249Z,7.62
2017-12-22T10:34:10.910Z,7.50
2017-12-22T10:36:38.415Z,8.57
2017-12-22T10:39:05.946Z,7.53
2017-12-22T10:41:33.691Z,6.95
2017-12-22T10:44:01.250Z,8.75
2017-12-22T10:46:28.758Z,7.53
2017-12-22T10:48:56.368Z,7.80
2017-12-22T10:51:23.879Z,7.28
2017-12-22T10:53:51.479Z,6.12
2017-12-22T10:56:19.029Z,6.65
2017-12-22T10:58:46.549Z,6.37
2017-12-22T11:01:14.061Z,6.53
2017-12-22T11:03:41.802Z,5.78
2017-12-22T11:06:09.320Z,6.57
2017-12-22T11:08:36.849Z,5.97
2017-12-22T11:11:04.707Z,6.15
2017-12-22T11:13:32.277Z,4.68
2017-12-22T11:15:59.778Z,6.28
2017-12-22T11:18:27.426Z,5.65
2017-12-22T11:20:55.007Z,5.70
2017-12-22T11:23:22.518Z,6.15
2017-12-22T11:25:50.097Z,4.80
2017-12-22T11:28:17.622Z,5.12
2017-12-22T11:30:45.135Z,5.40
2017-12-22T11:33:12.943Z,5.65
2017-12-22T11:35:40.499Z,4.35
2017-12-22T11:38:07.986Z,4.55
2017-12-22T11:40:35.681Z,4.95
2017-12-22T11:43:03.197Z,4.55
2017-12-22T11:45:31.660Z,3.97
2017-12-22T11:47:59.237Z,3.97
2017-12-22T11:50:26.777Z,4.40
2017-12-22T11:52:54.289Z,4.78
2017-12-22T11:55:21.823Z,4.12
2017-12-22T11:57:49.354Z,4.20
2017-12-22T12:00:16.959Z,4.25
2017-12-22T12:02:45.191Z,4.45
2017-12-22T12:05:12.712Z,1.83
2017-12-22T12:07:40.225Z,1.40
2017-12-22T12:10:07.967Z,1.20
2017-12-22T12:12:35.531Z,0.82
2017-12-22T12:15:03.085Z,0.95
2017-12-22T12:17:30.752Z,1.30
2017-12-22T12:19:58.299Z,0.95
2017-12-22T12:22:25.857Z,1.60
2017-12-22T12:24:53.734Z,1.90
2017-12-22T12:27:21.299Z,2.13
2017-12-22T12:29:48.959Z,1.77
2017-12-22T12:32:16.940Z,1.50
2017-12-22T12:34:44.685Z,0.95
2017-12-22T12:37:12.449Z,0.80
2017-12-22T12:39:40.216Z,0.98
2017-12-22T12:42:08.694Z,0.98
2017-12-22T12:44:36.252Z,1.17
2017-12-22T12:47:03.938Z,0.90
2017-12-22T12:49:31.483Z,1.40
2017-12-22T12:51:59.035Z,1.73
2017-12-22T12:54:26.611Z,1.40
2017-12-22T12:56:54.133Z,2.15
2017-12-22T12:59:21.812Z,2.20
2017-12-22T13:01:49.406Z,1.85
2017-12-22T13:04:17.362Z,2.20
2017-12-22T13:06:44.886Z,1.85
2017-12-22T13:09:12.470Z,1.87
2017-12-22T13:11:40.024Z,2.40
2017-12-22T13:14:07.567Z,1.70
2017-12-22T13:16:35.245Z,2.28
2017-12-22T13:19:02.839Z,2.35
2017-12-22T13:21:30.403Z,2.95
2017-12-22T13:23:58.939Z,2.20
2017-12-22T13:26:26.445Z,2.35
2017-12-22T13:28:53.966Z,3.28
2017-12-22T13:31:21.531Z,2.35
2017-12-22T13:33:49.053Z,2.62
2017-12-22T13:36:16.561Z,2.85
2017-12-22T13:38:44.395Z,2.50
2017-12-22T13:41:11.955Z,3.10
2017-12-22T13:43:39.460Z,2.83
2017-12-22T13:46:07.023Z,2.75
2017-12-22T13:48:34.538Z,2.20
2017-12-22T13:51:03.012Z,2.47
2017-12-22T13:53:30.753Z,2.50
2017-12-22T13:55:58.435Z,2.22
2017-12-22T13:58:25.950Z,1.95
2017-12-22T14:00:53.730Z,2.20
2017-12-22T14:03:21.317Z,1.58
2017-12-22T14:05:48.857Z,2.08
2017-12-22T14:08:16.618Z,1.55
2017-12-22T14:10:44.133Z,2.00
2017-12-22T14:13:11.910Z,1.50
2017-12-22T14:15:39.466Z,1.60
2017-12-22T14:18:06.984Z,1.55
2017-12-22T14:20:34.484Z,1.73
2017-12-22T14:23:02.306Z,1.40
2017-12-22T14:25:29.865Z,1.50
2017-12-22T14:27:57.523Z,1.33
2017-12-22T14:30:25.085Z,2.20
2017-12-22T14:32:52.687Z,2.30
2017-12-22T14:35:20.234Z,1.87
2017-12-22T14:37:47.811Z,2.20
2017-12-22T14:40:15.314Z,1.48
2017-12-22T14:42:42.817Z,1.73
2017-12-22T14:45:10.948Z,1.70
2017-12-22T14:47:38.825Z,2.05
2017-12-22T14:50:06.628Z,1.87
2017-12-22T14:52:34.193Z,2.50
2017-12-22T14:55:01.704Z,2.45
2017-12-22T14:57:29.215Z,2.17
2017-12-22T14:59:56.897Z,2.65
2017-12-22T15:02:24.417Z,2.50
2017-12-22T15:04:51.939Z,2.40
2017-12-22T15:07:19.879Z,2.15
2017-12-22T15:09:47.386Z,2.65
2017-12-22T15:12:14.895Z,2.50
2017-12-22T15:14:42.475Z,2.78
2017-12-22T15:17:10.003Z,2.83
2017-12-22T15:19:37.531Z,8.27
2017-12-22T15:22:05.320Z,6.00
2017-12-22T15:24:32.830Z,3.80
2017-12-22T15:27:00.387Z,3.75
2017-12-22T15:29:28.087Z,3.10
2017-12-22T15:31:55.613Z,3.50
2017-12-22T15:34:23.123Z,3.65
2017-12-22T15:36:50.713Z,3.62
2017-12-22T15:39:18.218Z,3.08
2017-12-22T15:41:45.728Z,2.75
2017-12-22T15:44:13.491Z,3.15
2017-12-22T15:46:41.076Z,2.80
2017-12-22T15:49:08.611Z,2.53
2017-12-22T15:51:36.166Z,2.72
2017-12-22T15:54:03.730Z,2.92
2017-12-22T15:56:31.288Z,2.75
2017-12-22T15:58:59.075Z,6.05
2017-12-22T16:01:26.580Z,4.00
2017-12-22T16:03:54.147Z,4.68
2017-12-22T16:06:21.805Z,4.97
2017-12-22T16:08:51.335Z,5.15
2017-12-22T16:11:20.367Z,4.62
2017-12-22T16:13:51.167Z,7.10
2017-12-22T16:16:18.830Z,8.45
2017-12-22T16:18:46.695Z,8.63
2017-12-22T16:21:15.003Z,10.32
2017-12-22T16:23:42.716Z,8.07
2017-12-22T16:26:10.294Z,8.30
2017-12-22T16:28:38.982Z,9.63
2017-12-22T16:31:06.487Z,11.65
2017-12-22T16:33:34.094Z,8.93
2017-12-22T16:36:02.111Z,4.20
2017-12-22T16:38:29.638Z,5.40
2017-12-22T16:40:57.184Z,4.00
2017-12-22T16:43:25.151Z,4.55
2017-12-22T16:45:52.710Z,4.72
2017-12-22T16:48:20.371Z,4.25
2017-12-22T16:50:47.951Z,4.65
2017-12-22T16:53:15.901Z,4.60
2017-12-22T16:55:43.565Z,5.03
2017-12-22T16:58:15.246Z,4.70
2017-12-22T17:03:20.371Z,4.32
2017-12-22T17:05:50.918Z,3.92
2017-12-22T17:08:18.974Z,5.28
2017-12-22T17:10:48.227Z,3.85
2017-12-22T17:13:16.033Z,4.65
2017-12-22T17:15:44.925Z,12.63
2017-12-22T17:18:16.325Z,12.40
2017-12-22T17:20:47.424Z,12.20
2017-12-22T17:23:17.137Z,7.80
2017-12-22T17:25:45.813Z,6.22
2017-12-22T17:28:13.737Z,5.70
2017-12-22T17:30:41.824Z,5.32
2017-12-22T17:33:09.824Z,5.03
2017-12-22T17:35:38.416Z,5.75
2017-12-22T17:38:07.091Z,5.82
2017-12-22T17:40:37.112Z,6.37
2017-12-22T17:43:05.242Z,5.53
2017-12-22T17:45:33.662Z,4.62
2017-12-22T17:48:01.436Z,3.60
2017-12-22T17:50:34.883Z,3.55
2017-12-22T17:53:04.940Z,4.15
2017-12-22T17:55:33.943Z,4.70
2017-12-22T18:00:44.663Z,5.62
2017-12-22T18:03:33.160Z,3.37
2017-12-22T18:06:02.294Z,3.90
2017-12-22T18:08:31.356Z,4.07
2017-12-22T18:11:14.899Z,4.45
2017-12-22T18:13:42.757Z,4.70
2017-12-22T18:16:13.080Z,3.80
2017-12-22T18:18:42.881Z,3.90
2017-12-22T18:21:12.805Z,4.65
2017-12-22T18:23:45.667Z,4.32
2017-12-22T18:26:14.968Z,3.37
2017-12-22T18:28:43.497Z,3.20
2017-12-22T18:31:13.407Z,3.67
2017-12-22T18:33:42.383Z,4.10
2017-12-22T18:36:10.780Z,3.75
2017-12-22T18:38:38.625Z,4.87
2017-12-22T18:41:16.943Z,4.28
2017-12-22T18:43:45.727Z,6.12
2017-12-22T18:46:14.381Z,4.22
2017-12-22T18:48:44.426Z,4.20
2017-12-22T18:51:15.670Z,3.95
2017-12-22T18:56:22.069Z,3.92
2017-12-22T18:58:53.176Z,4.55
2017-12-22T19:01:22.009Z,3.75
2017-12-22T19:03:52.747Z,3.80
2017-12-22T19:06:22.123Z,3.75
2017-12-22T19:08:50.666Z,4.25
2017-12-22T19:11:19.905Z,5.22
2017-12-22T19:13:47.835Z,5.00
2017-12-22T19:16:17.685Z,6.50
2017-12-22T19:18:45.447Z,5.00
2017-12-22T19:21:13.826Z,4.93
2017-12-22T19:23:41.795Z,4.25
2017-12-22T19:26:09.824Z,4.90
2017-12-22T19:28:37.666Z,5.80
2017-12-22T19:31:05.704Z,4.87
2017-12-22T19:33:33.703Z,6.95
2017-12-22T19:36:01.846Z,5.05
2017-12-22T19:38:30.357Z,5.40
2017-12-22T19:40:58.499Z,5.22
2017-12-22T19:43:26.472Z,4.53
2017-12-22T19:45:54.435Z,4.37
2017-12-22T19:48:26.715Z,3.92
2017-12-22T19:50:54.324Z,5.95
2017-12-22T19:53:21.918Z,4.90
2017-12-22T19:55:50.776Z,5.57
2017-12-22T19:58:18.783Z,4.50
2017-12-22T20:00:47.063Z,4.70
2017-12-22T20:03:26.910Z,5.53
2017-12-22T20:05:55.106Z,6.55
2017-12-22T20:08:24.699Z,7.68
2017-12-22T20:10:53.592Z,6.07
2017-12-22T20:13:23.375Z,6.00
2017-12-22T20:15:51.887Z,4.70
2017-12-22T20:18:20.127Z,5.07
2017-12-22T20:20:48.034Z,5.07
2017-12-22T20:23:16.225Z,5.50
2017-12-22T20:25:44.608Z,4.12
2017-12-22T20:28:15.841Z,4.78
2017-12-22T20:30:45.200Z,3.80
2017-12-22T20:33:13.814Z,4.28
2017-12-22T20:35:42.620Z,3.65
2017-12-22T20:38:11.365Z,3.70
2017-12-22T20:40:42.304Z,3.95
2017-12-22T20:43:11.060Z,3.37
2017-12-22T20:45:40.098Z,3.85
2017-12-22T20:48:08.491Z,3.90
2017-12-22T20:50:37.568Z,5.28
2017-12-22T20:53:06.151Z,4.90
2017-12-22T20:55:34.123Z,4.15
2017-12-22T20:58:02.420Z,3.55
2017-12-22T21:00:30.370Z,3.12
2017-12-22T21:02:58.822Z,3.40
2017-12-22T21:05:27.751Z,3.10
2017-12-22T21:07:55.708Z,3.90
2017-12-22T21:10:23.782Z,4.03
2017-12-22T21:12:52.157Z,3.90
2017-12-22T21:15:19.920Z,4.68
2017-12-22T21:17:49.771Z,4.47
2017-12-22T21:20:18.928Z,3.62
2017-12-22T21:22:46.840Z,4.28
2017-12-22T21:25:14.872Z,3.55
2017-12-22T21:27:43.865Z,4.35
2017-12-22T21:30:11.535Z,4.68
2017-12-22T21:32:39.593Z,4.20
2017-12-22T21:35:08.932Z,4.28
2017-12-22T21:37:36.476Z,4.50
2017-12-22T21:40:04.925Z,4.35
2017-12-22T21:42:32.664Z,4.78
2017-12-22T21:45:01.020Z,4.65
2017-12-22T21:47:28.882Z,5.28
2017-12-22T21:49:56.811Z,5.18
2017-12-22T21:52:24.778Z,4.53
2017-12-22T21:54:52.541Z,4.65
2017-12-22T21:57:21.229Z,4.65
2017-12-22T21:59:49.811Z,5.32
2017-12-22T22:02:17.678Z,5.22
2017-12-22T22:04:46.361Z,4.07
2017-12-22T22:07:14.769Z,4.35
2017-12-22T22:09:43.942Z,5.47
2017-12-22T22:12:12.823Z,5.85
2017-12-22T22:14:40.896Z,4.40
2017-12-22T22:17:08.766Z,4.62
2017-12-22T22:19:38.303Z,5.12
2017-12-22T22:22:07.139Z,5.37
2017-12-22T22:24:35.851Z,5.15
2017-12-22T22:27:05.602Z,5.50
2017-12-22T22:29:33.324Z,4.87
2017-12-22T22:32:00.985Z,6.12
2017-12-22T22:34:28.823Z,5.03
2017-12-22T22:36:56.390Z,5.50
2017-12-22T22:39:24.378Z,6.22
2017-12-22T22:41:52.739Z,5.10
2017-12-22T22:44:20.893Z,4.82
2017-12-22T22:46:48.989Z,6.00
2017-12-22T22:49:17.071Z,6.20
2017-12-22T22:51:45.043Z,5.43
2017-12-22T22:54:13.834Z,5.62
2017-12-22T22:56:41.488Z,6.37
2017-12-22T22:59:09.104Z,6.70
2017-12-22T23:01:36.847Z,7.25
2017-12-22T23:04:04.450Z,6.70
2017-12-22T23:06:31.965Z,6.47
2017-12-22T23:08:59.555Z,6.95
2017-12-22T23:11:27.368Z,7.15
2017-12-22T23:13:54.894Z,7.25
2017-12-22T23:16:22.402Z,7.15
2017-12-22T23:18:50.036Z,7.40
2017-12-22T23:21:17.549Z,7.20
2017-12-22T23:23:45.066Z,6.90
2017-12-22T23:26:12.889Z,7.87
2017-12-22T23:28:40.478Z,6.20
2017-12-22T23:31:07.989Z,6.60
2017-12-22T23:33:35.546Z,6.12
2017-12-22T23:36:03.974Z,6.50
2017-12-22T23:38:31.477Z,5.47
2017-12-22T23:40:59.165Z,5.30
2017-12-22T23:43:26.685Z,6.00
2017-12-22T23:45:54.190Z,5.43
2017-12-22T23:48:21.877Z,5.32
2017-12-22T23:50:49.377Z,5.18
2017-12-22T23:53:16.886Z,4.47
2017-12-22T23:55:44.621Z,5.45
2017-12-22T23:58:12.130Z,4.25
